sensor_id;sensor_type;location;lat;lon;timestamp;pressure;altitude;pressure_sealevel;temperature;humidity
68594;BME280;55563;52.416;13.548;2024-03-23T00:54:54;100409.09;;;9.20;100.00
68594;BME280;55563;52.416;13.548;2024-03-23T00:56:55;100401.25;;;9.20;100.00
68594;BME280;55563;52.416;13.548;2024-03-23T00:58:56;100400.19;;;9.21;100.00
68594;BME280;55563;52.416;13.548;2024-03-23T01:00:57;100394.41;;;9.19;100.00
68594;BME280;55563;52.416;13.548;2024-03-23T01:02:57;100384.16;;;9.17;100.00
68594;BME280;55563;52.416;13.548;2024-03-23T01:04:58;100369.75;;;9.15;100.00
68594;BME280;55563;52.416;13.548;2024-03-23T01:06:58;100390.97;;;9.13;100.00
68594;BME280;55563;52.416;13.548;2024-03-23T01:08:59;100375.03;;;9.20;100.00
68594;BME280;55563;52.416;13.548;2024-03-23T01:11:00;100373.94;;;9.16;100.00
68594;BME280;55563;52.416;13.548;2024-03-23T01:13:01;100378.88;;;9.07;100.00
68594;BME280;55563;52.416;13.548;2024-03-23T01:15:02;100372.16;;;9.27;100.00
68594;BME280;55563;52.416;13.548;2024-03-23T01:17:03;100373.47;;;9.24;100.00
68594;BME280;55563;52.416;13.548;2024-03-23T01:19:04;100382.09;;;9.19;100.00
68594;BME280;55563;52.416;13.548;2024-03-23T01:21:04;100370.34;;;9.32;100.00
68594;BME280;55563;52.416;13.548;2024-03-23T01:23:05;100373.72;;;9.23;100.00
68594;BME280;55563;52.416;13.548;2024-03-23T01:25:06;100381.88;;;9.31;100.00
68594;BME280;55563;52.416;13.548;2024-03-23T01:27:06;100373.19;;;9.26;100.00
68594;BME280;55563;52.416;13.548;2024-03-23T01:29:07;100374.75;;;9.22;100.00
68594;BME280;55563;52.416;13.548;2024-03-23T01:31:07;100373.69;;;9.17;100.00
68594;BME280;55563;52.416;13.548;2024-03-23T01:33:08;100367.16;;;9.20;100.00
68594;BME280;55563;52.416;13.548;2024-03-23T01:35:08;100358.50;;;9.19;100.00
68594;BME280;55563;52.416;13.548;2024-03-23T01:37:09;100352.97;;;9.21;100.00
68594;BME280;55563;52.416;13.548;2024-03-23T01:39:09;100337.22;;;9.16;100.00
68594;BME280;55563;52.416;13.548;2024-03-23T01:41:10;100330.97;;;9.22;100.00
68594;BME280;55563;52.416;13.548;2024-03-23T01:43:10;100321.50;;;9.16;100.00
68594;BME280;55563;52.416;13.548;2024-03-23T01:45:11;100329.91;;;9.18;100.00
68594;BME280;55563;52.416;13.548;2024-03-23T01:47:11;100319.66;;;9.16;100.00
68594;BME280;55563;52.416;13.548;2024-03-23T01:49:13;100311.28;;;9.14;100.00
68594;BME280;55563;52.416;13.548;2024-03-23T01:51:14;100303.13;;;9.16;100.00
68594;BME280;55563;52.416;13.548;2024-03-23T01:53:14;100306.81;;;9.15;100.00
68594;BME280;55563;52.416;13.548;2024-03-23T01:55:17;100309.44;;;9.15;100.00
68594;BME280;55563;52.416;13.548;2024-03-23T01:57:19;100307.06;;;9.08;100.00
68594;BME280;55563;52.416;13.548;2024-03-23T01:59:21;100309.94;;;9.12;100.00
68594;BME280;55563;52.416;13.548;2024-03-23T02:01:21;100312.88;;;9.21;100.00
68594;BME280;55563;52.416;13.548;2024-03-23T02:03:24;100317.81;;;9.17;100.00
68594;BME280;55563;52.416;13.548;2024-03-23T02:05:25;100305.75;;;9.11;100.00
68594;BME280;55563;52.416;13.548;2024-03-23T02:07:26;100305.22;;;9.09;100.00
68594;BME280;55563;52.416;13.548;2024-03-23T02:09:27;100307.81;;;9.04;100.00
68594;BME280;55563;52.416;13.548;2024-03-23T02:11:27;100307.81;;;9.04;100.00
68594;BME280;55563;52.416;13.548;2024-03-23T02:13:28;100306.53;;;9.06;100.00
68594;BME280;55563;52.416;13.548;2024-03-23T02:15:29;100319.09;;;9.04;100.00
68594;BME280;55563;52.416;13.548;2024-03-23T02:17:31;100320.94;;;9.09;100.00
68594;BME280;55563;52.416;13.548;2024-03-23T02:19:32;100322.78;;;9.08;100.00
68594;BME280;55563;52.416;13.548;2024-03-23T02:21:33;100320.13;;;9.03;100.00
68594;BME280;55563;52.416;13.548;2024-03-23T02:23:34;100304.69;;;9.12;100.00
68594;BME280;55563;52.416;13.548;2024-03-23T02:25:34;100293.66;;;9.00;100.00
68594;BME280;55563;52.416;13.548;2024-03-23T02:27:35;100294.47;;;9.05;100.00
68594;BME280;55563;52.416;13.548;2024-03-23T02:29:36;100303.63;;;9.03;100.00
68594;BME280;55563;52.416;13.548;2024-03-23T02:31:36;100295.75;;;9.03;100.00
68594;BME280;55563;52.416;13.548;2024-03-23T02:33:37;100302.31;;;9.05;100.00
68594;BME280;55563;52.416;13.548;2024-03-23T02:35:38;100293.16;;;9.08;100.00
68594;BME280;55563;52.416;13.548;2024-03-23T02:37:39;100286.06;;;9.03;100.00
68594;BME280;55563;52.416;13.548;2024-03-23T02:39:39;100276.63;;;9.07;100.00
68594;BME280;55563;52.416;13.548;2024-03-23T02:41:40;100278.44;;;9.02;100.00
68594;BME280;55563;52.416;13.548;2024-03-23T02:43:40;100278.16;;;8.98;100.00
68594;BME280;55563;52.416;13.548;2024-03-23T02:45:41;100274.50;;;8.99;100.00
68594;BME280;55563;52.416;13.548;2024-03-23T02:47:41;100276.34;;;8.99;100.00
68594;BME280;55563;52.416;13.548;2024-03-23T02:49:42;100260.38;;;9.00;100.00
68594;BME280;55563;52.416;13.548;2024-03-23T02:51:43;100255.91;;;8.96;100.00
68594;BME280;55563;52.416;13.548;2024-03-23T02:53:45;100253.22;;;8.86;100.00
68594;BME280;55563;52.416;13.548;2024-03-23T02:55:46;100251.16;;;8.93;100.00
68594;BME280;55563;52.416;13.548;2024-03-23T02:57:46;100244.00;;;8.78;100.00
68594;BME280;55563;52.416;13.548;2024-03-23T02:59:47;100240.38;;;8.84;100.00
68594;BME280;55563;52.416;13.548;2024-03-23T03:01:48;100234.06;;;8.80;100.00
68594;BME280;55563;52.416;13.548;2024-03-23T03:03:48;100248.03;;;8.96;100.00
68594;BME280;55563;52.416;13.548;2024-03-23T03:05:55;100245.88;;;8.88;100.00
68594;BME280;55563;52.416;13.548;2024-03-23T03:07:55;100241.13;;;8.80;100.00
68594;BME280;55563;52.416;13.548;2024-03-23T03:09:56;100245.88;;;8.78;100.00
68594;BME280;55563;52.416;13.548;2024-03-23T03:11:57;100242.69;;;8.75;100.00
68594;BME280;55563;52.416;13.548;2024-03-23T03:13:57;100240.91;;;8.81;100.00
68594;BME280;55563;52.416;13.548;2024-03-23T03:16:00;100239.34;;;8.85;100.00
68594;BME280;55563;52.416;13.548;2024-03-23T03:18:01;100239.84;;;8.82;100.00
68594;BME280;55563;52.416;13.548;2024-03-23T03:20:01;100239.31;;;8.80;100.00
68594;BME280;55563;52.416;13.548;2024-03-23T03:22:04;100241.38;;;8.78;100.00
68594;BME280;55563;52.416;13.548;2024-03-23T03:24:06;100235.91;;;8.80;100.00
68594;BME280;55563;52.416;13.548;2024-03-23T03:26:06;100228.03;;;8.80;100.00
68594;BME280;55563;52.416;13.548;2024-03-23T03:28:07;100230.91;;;8.78;100.00
68594;BME280;55563;52.416;13.548;2024-03-23T03:30:08;100218.09;;;8.77;100.00
68594;BME280;55563;52.416;13.548;2024-03-23T03:32:09;100208.41;;;8.77;100.00
68594;BME280;55563;52.416;13.548;2024-03-23T03:34:09;100210.25;;;8.82;100.00
68594;BME280;55563;52.416;13.548;2024-03-23T03:36:10;100208.41;;;8.82;100.00
68594;BME280;55563;52.416;13.548;2024-03-23T03:38:11;100211.28;;;8.81;100.00
68594;BME280;55563;52.416;13.548;2024-03-23T03:40:12;100213.09;;;8.80;100.00
68594;BME280;55563;52.416;13.548;2024-03-23T03:42:15;100213.34;;;8.73;100.00
68594;BME280;55563;52.416;13.548;2024-03-23T03:44:16;100209.88;;;8.58;100.00
68594;BME280;55563;52.416;13.548;2024-03-23T03:46:17;100200.25;;;8.79;100.00
68594;BME280;55563;52.416;13.548;2024-03-23T03:48:17;100201.81;;;8.74;100.00
68594;BME280;55563;52.416;13.548;2024-03-23T03:50:19;100203.38;;;8.70;100.00
68594;BME280;55563;52.416;13.548;2024-03-23T03:52:20;100194.44;;;8.61;100.00
68594;BME280;55563;52.416;13.548;2024-03-23T03:54:21;100201.53;;;8.66;100.00
68594;BME280;55563;52.416;13.548;2024-03-23T03:56:21;100212.50;;;8.58;100.00
68594;BME280;55563;52.416;13.548;2024-03-23T03:58:22;100217.25;;;8.66;100.00
68594;BME280;55563;52.416;13.548;2024-03-23T04:00:23;100216.41;;;8.55;100.00
68594;BME280;55563;52.416;13.548;2024-03-23T04:02:23;100212.22;;;8.59;100.00
68594;BME280;55563;52.416;13.548;2024-03-23T04:04:24;100204.91;;;8.61;100.00
68594;BME280;55563;52.416;13.548;2024-03-23T04:06:24;100192.06;;;8.60;100.00
68594;BME280;55563;52.416;13.548;2024-03-23T04:08:25;100195.47;;;8.60;100.00
68594;BME280;55563;52.416;13.548;2024-03-23T04:10:25;100190.75;;;8.57;100.00
68594;BME280;55563;52.416;13.548;2024-03-23T04:12:27;100193.06;;;8.44;100.00
68594;BME280;55563;52.416;13.548;2024-03-23T04:14:27;100186.81;;;8.55;100.00
68594;BME280;55563;52.416;13.548;2024-03-23T04:16:29;100182.63;;;8.59;100.00
68594;BME280;55563;52.416;13.548;2024-03-23T04:18:29;100175.31;;;8.61;100.00
68594;BME280;55563;52.416;13.548;2024-03-23T04:20:30;100172.94;;;8.59;100.00
68594;BME280;55563;52.416;13.548;2024-03-23T04:22:31;100171.38;;;8.63;100.00
68594;BME280;55563;52.416;13.548;2024-03-23T04:24:31;100174.53;;;8.65;100.00
68594;BME280;55563;52.416;13.548;2024-03-23T04:26:41;100183.16;;;8.61;100.00
68594;BME280;55563;52.416;13.548;2024-03-23T04:28:41;100186.69;;;8.35;100.00
68594;BME280;55563;52.416;13.548;2024-03-23T04:30:43;100180.50;;;8.51;100.00
68594;BME280;55563;52.416;13.548;2024-03-23T04:32:43;100184.91;;;8.40;100.00
68594;BME280;55563;52.416;13.548;2024-03-23T04:34:44;100172.34;;;8.42;100.00
68594;BME280;55563;52.416;13.548;2024-03-23T04:36:45;100178.09;;;8.44;100.00
68594;BME280;55563;52.416;13.548;2024-03-23T04:38:46;100184.69;;;8.47;100.00
68594;BME280;55563;52.416;13.548;2024-03-23T04:40:58;100181.25;;;8.46;100.00
68594;BME280;55563;52.416;13.548;2024-03-23T04:42:58;100183.84;;;8.36;100.00
68594;BME280;55563;52.416;13.548;2024-03-23T04:45:00;100188.03;;;8.37;100.00
68594;BME280;55563;52.416;13.548;2024-03-23T04:47:00;100182.16;;;8.25;100.00
68594;BME280;55563;52.416;13.548;2024-03-23T04:49:01;100179.03;;;8.23;100.00
68594;BME280;55563;52.416;13.548;2024-03-23T04:51:04;100178.25;;;8.27;100.00
68594;BME280;55563;52.416;13.548;2024-03-23T04:53:05;100158.97;;;8.34;100.00
68594;BME280;55563;52.416;13.548;2024-03-23T04:55:05;100156.03;;;8.30;100.00
68594;BME280;55563;52.416;13.548;2024-03-23T04:57:06;100151.84;;;8.29;100.00
68594;BME280;55563;52.416;13.548;2024-03-23T04:59:07;100137.16;;;8.28;100.00
68594;BME280;55563;52.416;13.548;2024-03-23T05:01:07;100129.09;;;8.29;100.00
68594;BME280;55563;52.416;13.548;2024-03-23T05:03:08;100130.88;;;8.24;100.00
68594;BME280;55563;52.416;13.548;2024-03-23T05:05:09;100132.94;;;8.22;100.00
68594;BME280;55563;52.416;13.548;2024-03-23T05:07:09;100136.09;;;8.19;100.00
68594;BME280;55563;52.416;13.548;2024-03-23T05:09:10;100130.09;;;8.28;100.00
68594;BME280;55563;52.416;13.548;2024-03-23T05:11:12;100126.16;;;8.26;100.00
68594;BME280;55563;52.416;13.548;2024-03-23T05:13:12;100136.91;;;8.24;100.00
68594;BME280;55563;52.416;13.548;2024-03-23T05:15:13;100128.28;;;8.29;100.00
68594;BME280;55563;52.416;13.548;2024-03-23T05:17:14;100135.84;;;8.25;100.00
68594;BME280;55563;52.416;13.548;2024-03-23T05:19:14;100134.53;;;8.23;100.00
68594;BME280;55563;52.416;13.548;2024-03-23T05:21:15;100127.13;;;8.10;100.00
68594;BME280;55563;52.416;13.548;2024-03-23T05:23:15;100131.34;;;8.16;100.00
68594;BME280;55563;52.416;13.548;2024-03-23T05:25:17;100136.50;;;8.06;100.00
68594;BME280;55563;52.416;13.548;2024-03-23T05:27:17;100147.53;;;8.08;100.00
68594;BME280;55563;52.416;13.548;2024-03-23T05:29:18;100143.63;;;8.10;100.00
68594;BME280;55563;52.416;13.548;2024-03-23T05:31:26;100134.28;;;8.24;100.00
68594;BME280;55563;52.416;13.548;2024-03-23T05:33:27;100123.25;;;8.22;100.00
68594;BME280;55563;52.416;13.548;2024-03-23T05:35:28;100120.13;;;8.25;100.00
68594;BME280;55563;52.416;13.548;2024-03-23T05:37:29;100110.88;;;8.08;100.00
68594;BME280;55563;52.416;13.548;2024-03-23T05:39:31;100107.22;;;8.04;100.00
68594;BME280;55563;52.416;13.548;2024-03-23T05:41:32;100105.84;;;7.91;100.00
68594;BME280;55563;52.416;13.548;2024-03-23T05:43:32;100117.88;;;7.97;100.00
68594;BME280;55563;52.416;13.548;2024-03-23T05:45:33;100112.44;;;8.04;100.00
68594;BME280;55563;52.416;13.548;2024-03-23T05:47:34;100102.47;;;7.96;100.00
68594;BME280;55563;52.416;13.548;2024-03-23T05:49:34;100098.00;;;7.96;100.00
68594;BME280;55563;52.416;13.548;2024-03-23T05:51:35;100104.28;;;7.95;100.00
68594;BME280;55563;52.416;13.548;2024-03-23T05:53:35;100101.63;;;7.85;100.00
68594;BME280;55563;52.416;13.548;2024-03-23T05:55:36;100094.78;;;7.84;100.00
68594;BME280;55563;52.416;13.548;2024-03-23T05:57:36;100093.63;;;7.65;100.00
68594;BME280;55563;52.416;13.548;2024-03-23T05:59:37;100086.13;;;7.78;100.00
68594;BME280;55563;52.416;13.548;2024-03-23T06:01:38;100086.78;;;7.59;100.00
68594;BME280;55563;52.416;13.548;2024-03-23T06:03:39;100086.78;;;7.59;100.00
68594;BME280;55563;52.416;13.548;2024-03-23T06:05:40;100084.22;;;7.64;100.00
68594;BME280;55563;52.416;13.548;2024-03-23T06:07:41;100083.09;;;7.55;100.00
68594;BME280;55563;52.416;13.548;2024-03-23T06:09:42;100071.41;;;7.62;100.00
68594;BME280;55563;52.416;13.548;2024-03-23T06:11:42;100068.72;;;7.52;100.00
68594;BME280;55563;52.416;13.548;2024-03-23T06:13:43;100063.94;;;7.44;100.00
68594;BME280;55563;52.416;13.548;2024-03-23T06:15:43;100054.00;;;7.41;100.00
68594;BME280;55563;52.416;13.548;2024-03-23T06:17:45;100051.09;;;7.37;100.00
68594;BME280;55563;52.416;13.548;2024-03-23T06:19:46;100041.56;;;7.21;100.00
68594;BME280;55563;52.416;13.548;2024-03-23T06:21:47;100043.50;;;7.36;100.00
68594;BME280;55563;52.416;13.548;2024-03-23T06:23:47;100037.50;;;7.40;100.00
68594;BME280;55563;52.416;13.548;2024-03-23T06:25:51;100033.06;;;7.41;100.00
68594;BME280;55563;52.416;13.548;2024-03-23T06:27:52;100044.13;;;7.48;100.00
68594;BME280;55563;52.416;13.548;2024-03-23T06:29:52;100041.75;;;7.47;100.00
68594;BME280;55563;52.416;13.548;2024-03-23T06:31:54;100044.66;;;7.55;100.00
68594;BME280;55563;52.416;13.548;2024-03-23T06:33:55;100049.34;;;7.48;100.00
68594;BME280;55563;52.416;13.548;2024-03-23T06:35:56;100050.41;;;7.52;100.00
68594;BME280;55563;52.416;13.548;2024-03-23T06:37:56;100040.44;;;7.49;100.00
68594;BME280;55563;52.416;13.548;2024-03-23T06:39:57;100031.03;;;7.48;100.00
68594;BME280;55563;52.416;13.548;2024-03-23T06:41:57;100025.47;;;7.39;100.00
68594;BME280;55563;52.416;13.548;2024-03-23T06:43:58;100021.28;;;7.33;100.00
68594;BME280;55563;52.416;13.548;2024-03-23T06:45:58;100015.28;;;7.38;100.00
68594;BME280;55563;52.416;13.548;2024-03-23T06:47:59;100017.72;;;7.55;100.00
68594;BME280;55563;52.416;13.548;2024-03-23T06:50:00;100024.72;;;7.44;100.00
68594;BME280;55563;52.416;13.548;2024-03-23T06:52:05;100032.56;;;7.44;100.00
68594;BME280;55563;52.416;13.548;2024-03-23T06:54:06;100029.66;;;7.40;100.00
68594;BME280;55563;52.416;13.548;2024-03-23T06:56:06;100035.69;;;7.41;100.00
68594;BME280;55563;52.416;13.548;2024-03-23T06:58:07;100029.41;;;7.37;100.00
68594;BME280;55563;52.416;13.548;2024-03-23T07:00:08;100022.31;;;7.32;100.00
68594;BME280;55563;52.416;13.548;2024-03-23T07:02:10;100018.31;;;7.25;100.00
68594;BME280;55563;52.416;13.548;2024-03-23T07:04:11;100017.28;;;7.26;100.00
68594;BME280;55563;52.416;13.548;2024-03-23T07:06:11;100006.63;;;7.32;100.00
68594;BME280;55563;52.416;13.548;2024-03-23T07:08:12;100003.47;;;7.30;100.00
68594;BME280;55563;52.416;13.548;2024-03-23T07:10:13;100001.13;;;7.29;100.00
68594;BME280;55563;52.416;13.548;2024-03-23T07:12:13;100001.97;;;7.44;100.00
68594;BME280;55563;52.416;13.548;2024-03-23T07:14:14;99995.09;;;7.28;100.00
68594;BME280;55563;52.416;13.548;2024-03-23T07:16:15;99997.53;;;7.45;100.00
68594;BME280;55563;52.416;13.548;2024-03-23T07:18:16;100000.94;;;7.45;100.00
68594;BME280;55563;52.416;13.548;2024-03-23T07:20:17;99997.75;;;7.33;100.00
68594;BME280;55563;52.416;13.548;2024-03-23T07:22:17;99999.78;;;7.26;100.00
68594;BME280;55563;52.416;13.548;2024-03-23T07:24:18;99994.84;;;7.30;100.00
68594;BME280;55563;52.416;13.548;2024-03-23T07:26:19;100000.66;;;7.42;100.00
68594;BME280;55563;52.416;13.548;2024-03-23T07:28:20;100002.28;;;7.48;100.00
68594;BME280;55563;52.416;13.548;2024-03-23T07:30:22;99995.72;;;7.45;100.00
68594;BME280;55563;52.416;13.548;2024-03-23T07:32:23;99992.56;;;7.38;100.00
68594;BME280;55563;52.416;13.548;2024-03-23T07:34:23;99996.00;;;7.49;100.00
68594;BME280;55563;52.416;13.548;2024-03-23T07:36:24;99994.44;;;7.53;100.00
68594;BME280;55563;52.416;13.548;2024-03-23T07:38:27;99998.56;;;7.44;100.00
68594;BME280;55563;52.416;13.548;2024-03-23T07:40:28;99992.31;;;7.45;100.00
68594;BME280;55563;52.416;13.548;2024-03-23T07:42:29;99977.69;;;7.49;100.00
68594;BME280;55563;52.416;13.548;2024-03-23T07:44:29;99986.69;;;7.73;100.00
68594;BME280;55563;52.416;13.548;2024-03-23T07:46:30;99979.06;;;7.62;100.00
68594;BME280;55563;52.416;13.548;2024-03-23T07:48:31;99990.78;;;7.54;100.00
68594;BME280;55563;52.416;13.548;2024-03-23T07:50:31;99984.13;;;7.31;100.00
68594;BME280;55563;52.416;13.548;2024-03-23T07:52:32;99987.56;;;7.37;100.00
68594;BME280;55563;52.416;13.548;2024-03-23T07:54:32;99985.25;;;7.45;100.00
68594;BME280;55563;52.416;13.548;2024-03-23T07:56:33;99975.06;;;7.49;100.00
68594;BME280;55563;52.416;13.548;2024-03-23T07:58:34;99972.59;;;7.22;100.00
68594;BME280;55563;52.416;13.548;2024-03-23T08:00:35;99974.38;;;7.17;100.00
68594;BME280;55563;52.416;13.548;2024-03-23T08:02:35;99964.97;;;7.21;100.00
68594;BME280;55563;52.416;13.548;2024-03-23T08:04:36;99967.13;;;7.29;100.00
68594;BME280;55563;52.416;13.548;2024-03-23T08:06:37;99953.25;;;7.23;100.00
68594;BME280;55563;52.416;13.548;2024-03-23T08:08:40;99959.34;;;7.44;100.00
68594;BME280;55563;52.416;13.548;2024-03-23T08:10:55;99956.22;;;7.42;100.00
68594;BME280;55563;52.416;13.548;2024-03-23T08:12:56;99952.53;;;7.33;100.00
68594;BME280;55563;52.416;13.548;2024-03-23T08:14:56;99951.75;;;7.37;100.00
68594;BME280;55563;52.416;13.548;2024-03-23T08:16:57;99949.41;;;7.41;100.00
68594;BME280;55563;52.416;13.548;2024-03-23T08:18:57;99941.00;;;7.29;100.00
68594;BME280;55563;52.416;13.548;2024-03-23T08:20:59;99946.84;;;7.46;100.00
68594;BME280;55563;52.416;13.548;2024-03-23T08:23:00;99939.41;;;7.23;100.00
68594;BME280;55563;52.416;13.548;2024-03-23T08:25:01;99947.84;;;7.40;100.00
68594;BME280;55563;52.416;13.548;2024-03-23T08:27:01;99942.41;;;7.47;100.00
68594;BME280;55563;52.416;13.548;2024-03-23T08:29:02;99942.88;;;7.38;100.00
68594;BME280;55563;52.416;13.548;2024-03-23T08:31:05;99951.25;;;7.40;100.00
68594;BME280;55563;52.416;13.548;2024-03-23T08:33:06;99946.81;;;7.41;100.00
68594;BME280;55563;52.416;13.548;2024-03-23T08:35:08;99947.06;;;7.44;100.00
68594;BME280;55563;52.416;13.548;2024-03-23T08:37:08;99937.63;;;7.33;100.00
68594;BME280;55563;52.416;13.548;2024-03-23T08:39:09;99939.63;;;7.21;100.00
68594;BME280;55563;52.416;13.548;2024-03-23T08:41:10;99935.75;;;7.24;100.00
68594;BME280;55563;52.416;13.548;2024-03-23T08:43:11;99937.22;;;7.10;100.00
68594;BME280;55563;52.416;13.548;2024-03-23T08:45:12;99934.09;;;7.13;100.00
68594;BME280;55563;52.416;13.548;2024-03-23T08:47:12;99937.78;;;7.17;100.00
68594;BME280;55563;52.416;13.548;2024-03-23T08:49:13;99933.31;;;7.12;100.00
68594;BME280;55563;52.416;13.548;2024-03-23T08:51:16;99940.03;;;6.98;100.00
68594;BME280;55563;52.416;13.548;2024-03-23T08:53:16;99935.16;;;7.17;100.00
68594;BME280;55563;52.416;13.548;2024-03-23T08:55:17;99929.03;;;6.96;100.00
68594;BME280;55563;52.416;13.548;2024-03-23T08:57:17;99933.03;;;7.09;100.00
68594;BME280;55563;52.416;13.548;2024-03-23T08:59:18;99926.69;;;6.94;100.00
68594;BME280;55563;52.416;13.548;2024-03-23T09:01:20;99942.63;;;6.98;100.00
68594;BME280;55563;52.416;13.548;2024-03-23T09:03:20;99939.19;;;6.92;100.00
68594;BME280;55563;52.416;13.548;2024-03-23T09:05:21;99932.38;;;6.91;100.00
68594;BME280;55563;52.416;13.548;2024-03-23T09:07:22;99937.47;;;7.08;100.00
68594;BME280;55563;52.416;13.548;2024-03-23T09:09:23;99937.44;;;7.03;100.00
68594;BME280;55563;52.416;13.548;2024-03-23T09:11:23;99932.66;;;6.90;100.00
68594;BME280;55563;52.416;13.548;2024-03-23T09:13:24;99944.84;;;6.79;100.00
68594;BME280;55563;52.416;13.548;2024-03-23T09:15:24;99951.66;;;6.80;100.00
68594;BME280;55563;52.416;13.548;2024-03-23T09:17:24;99947.72;;;6.78;100.00
68594;BME280;55563;52.416;13.548;2024-03-23T09:19:28;99949.44;;;6.67;100.00
68594;BME280;55563;52.416;13.548;2024-03-23T09:21:29;99945.06;;;6.73;100.00
68594;BME280;55563;52.416;13.548;2024-03-23T09:23:30;99945.59;;;6.75;100.00
68594;BME280;55563;52.416;13.548;2024-03-23T09:25:31;99964.75;;;6.85;100.00
68594;BME280;55563;52.416;13.548;2024-03-23T09:27:32;99953.91;;;6.72;100.00
68594;BME280;55563;52.416;13.548;2024-03-23T09:29:33;99944.50;;;6.66;100.00
68594;BME280;55563;52.416;13.548;2024-03-23T09:31:33;99954.97;;;6.71;100.00
68594;BME280;55563;52.416;13.548;2024-03-23T09:33:35;99956.16;;;6.58;100.00
68594;BME280;55563;52.416;13.548;2024-03-23T09:35:38;99951.94;;;6.52;100.00
68594;BME280;55563;52.416;13.548;2024-03-23T09:37:38;99964.25;;;6.56;100.00
68594;BME280;55563;52.416;13.548;2024-03-23T09:39:40;99963.19;;;6.57;100.00
68594;BME280;55563;52.416;13.548;2024-03-23T09:41:42;99971.34;;;6.34;100.00
68594;BME280;55563;52.416;13.548;2024-03-23T09:43:43;99969.63;;;6.18;100.00
68594;BME280;55563;52.416;13.548;2024-03-23T09:45:45;99972.72;;;6.15;100.00
68594;BME280;55563;52.416;13.548;2024-03-23T09:47:46;99967.56;;;6.20;100.00
68594;BME280;55563;52.416;13.548;2024-03-23T09:49:47;99974.69;;;6.03;100.00
68594;BME280;55563;52.416;13.548;2024-03-23T09:51:47;99996.75;;;6.17;100.00
68594;BME280;55563;52.416;13.548;2024-03-23T09:53:50;99998.69;;;6.27;100.00
68594;BME280;55563;52.416;13.548;2024-03-23T09:55:50;99995.56;;;6.03;100.00
68594;BME280;55563;52.416;13.548;2024-03-23T09:57:51;100005.03;;;6.09;100.00
68594;BME280;55563;52.416;13.548;2024-03-23T09:59:51;100012.16;;;5.97;100.00
68594;BME280;55563;52.416;13.548;2024-03-23T10:01:53;100021.38;;;6.04;100.00
68594;BME280;55563;52.416;13.548;2024-03-23T10:03:53;100026.78;;;5.98;100.00
68594;BME280;55563;52.416;13.548;2024-03-23T10:06:02;100038.28;;;5.80;100.00
68594;BME280;55563;52.416;13.548;2024-03-23T10:08:18;100037.94;;;5.93;100.00
68594;BME280;55563;52.416;13.548;2024-03-23T10:10:19;100044.34;;;5.86;100.00
68594;BME280;55563;52.416;13.548;2024-03-23T10:12:23;100044.53;;;5.79;100.00
68594;BME280;55563;52.416;13.548;2024-03-23T10:14:29;100047.88;;;5.96;100.00
68594;BME280;55563;52.416;13.548;2024-03-23T10:16:29;100045.84;;;5.98;100.00
68594;BME280;55563;52.416;13.548;2024-03-23T10:18:30;100043.47;;;5.97;100.00
68594;BME280;55563;52.416;13.548;2024-03-23T10:20:32;100055.25;;;5.83;100.00
68594;BME280;55563;52.416;13.548;2024-03-23T10:22:37;100055.13;;;5.72;100.00
68594;BME280;55563;52.416;13.548;2024-03-23T10:24:39;100047.34;;;5.56;100.00
68594;BME280;55563;52.416;13.548;2024-03-23T10:26:39;100056.00;;;5.61;100.00
68594;BME280;55563;52.416;13.548;2024-03-23T10:28:57;100051.56;;;5.62;100.00
68594;BME280;55563;52.416;13.548;2024-03-23T10:31:11;100050.91;;;5.50;100.00
68594;BME280;55563;52.416;13.548;2024-03-23T10:33:12;100057.84;;;5.61;100.00
68594;BME280;55563;52.416;13.548;2024-03-23T10:35:20;100068.97;;;5.56;100.00
68594;BME280;55563;52.416;13.548;2024-03-23T10:37:22;100073.47;;;5.61;100.00
68594;BME280;55563;52.416;13.548;2024-03-23T10:39:23;100078.78;;;5.49;100.00
68594;BME280;55563;52.416;13.548;2024-03-23T10:41:28;100071.44;;;5.46;100.00
68594;BME280;55563;52.416;13.548;2024-03-23T10:43:31;100082.88;;;5.45;100.00
68594;BME280;55563;52.416;13.548;2024-03-23T10:45:33;100085.94;;;5.59;100.00
68594;BME280;55563;52.416;13.548;2024-03-23T10:47:35;100086.91;;;5.53;100.00
68594;BME280;55563;52.416;13.548;2024-03-23T10:49:36;100084.94;;;5.60;100.00
68594;BME280;55563;52.416;13.548;2024-03-23T10:51:37;100090.94;;;5.60;100.00
68594;BME280;55563;52.416;13.548;2024-03-23T10:53:37;100081.94;;;5.51;100.00
68594;BME280;55563;52.416;13.548;2024-03-23T10:55:40;100082.56;;;5.42;100.00
68594;BME280;55563;52.416;13.548;2024-03-23T10:57:45;100100.34;;;5.45;100.00
68594;BME280;55563;52.416;13.548;2024-03-23T10:59:48;100101.81;;;5.57;100.00
68594;BME280;55563;52.416;13.548;2024-03-23T11:01:57;100111.22;;;5.58;100.00
68594;BME280;55563;52.416;13.548;2024-03-23T11:03:58;100100.66;;;5.65;100.00
68594;BME280;55563;52.416;13.548;2024-03-23T11:06:00;100096.22;;;5.65;100.00
68594;BME280;55563;52.416;13.548;2024-03-23T11:08:00;100100.94;;;5.68;100.00
68594;BME280;55563;52.416;13.548;2024-03-23T11:10:02;100102.91;;;5.78;100.00
68594;BME280;55563;52.416;13.548;2024-03-23T11:12:34;100109.94;;;5.78;100.00
68594;BME280;55563;52.416;13.548;2024-03-23T11:14:23;100108.34;;;5.77;100.00
68594;BME280;55563;52.416;13.548;2024-03-23T11:16:26;100115.22;;;5.83;100.00
68594;BME280;55563;52.416;13.548;2024-03-23T11:18:30;100113.03;;;5.75;100.00
68594;BME280;55563;52.416;13.548;2024-03-23T11:20:32;100121.00;;;5.85;100.00
68594;BME280;55563;52.416;13.548;2024-03-23T11:22:47;100114.13;;;5.95;100.00